createdAt,value
2023-01-15T00:03:11.294Z,11.50
2023-01-15T00:08:13.142Z,11.60
2023-01-15T00:13:15.110Z,11.60
2023-01-15T00:18:16.927Z,11.60
2023-01-15T00:28:40.737Z,11.50
2023-01-15T00:33:42.620Z,11.70
2023-01-15T00:38:44.420Z,11.70
2023-01-15T00:53:51.658Z,11.50
2023-01-15T00:58:53.564Z,11.60
2023-01-15T01:03:55.366Z,11.60
2023-01-15T01:08:57.321Z,11.60
2023-01-15T01:13:59.173Z,11.70
2023-01-15T01:19:03.795Z,11.60
2023-01-15T01:24:06.840Z,11.60
2023-01-15T01:29:08.671Z,11.60
2023-01-15T01:34:11.761Z,11.60
2023-01-15T01:39:18.730Z,11.60
2023-01-15T01:44:32.550Z,11.90
2023-01-15T01:49:35.873Z,11.90
2023-01-15T01:54:39.178Z,12.00
2023-01-15T01:59:41.374Z,12.00
2023-01-15T02:15:04.381Z,12.00
2023-01-15T02:25:51.969Z,12.10
2023-01-15T02:31:19.931Z,12.10
2023-01-15T02:36:24.617Z,12.00
2023-01-15T02:41:32.720Z,12.00
2023-01-15T02:46:36.943Z,12.10
2023-01-15T02:51:44.508Z,12.10
2023-01-15T02:56:48.532Z,12.00
2023-01-15T03:02:04.083Z,12.00
2023-01-15T03:07:10.038Z,12.00
2023-01-15T03:13:02.710Z,11.90
2023-01-15T03:18:08.426Z,11.90
2023-01-15T03:23:13.033Z,11.90
2023-01-15T03:28:17.699Z,11.90
2023-01-15T03:33:20.059Z,12.00
2023-01-15T03:38:24.155Z,12.00
2023-01-15T03:43:41.283Z,12.00
2023-01-15T03:49:10.036Z,12.00
2023-01-15T03:54:21.686Z,12.00
2023-01-15T03:59:33.032Z,12.00
2023-01-15T04:04:35.202Z,12.00
2023-01-15T04:09:39.275Z,12.10
2023-01-15T04:14:41.283Z,12.10
2023-01-15T04:19:44.404Z,12.10
2023-01-15T04:24:46.223Z,12.10
2023-01-15T04:29:48.173Z,12.40
2023-01-15T04:34:50.535Z,12.10
2023-01-15T04:44:54.546Z,12.10
2023-01-15T04:55:01.265Z,12.10
2023-01-15T05:00:03.769Z,12.20
2023-01-15T05:05:05.923Z,12.10
2023-01-15T05:10:08.962Z,11.70
2023-01-15T05:15:10.830Z,11.60
2023-01-15T05:20:12.994Z,11.50
2023-01-15T05:30:17.420Z,11.30
2023-01-15T05:50:27.775Z,10.50
2023-01-15T05:55:30.720Z,9.90
2023-01-15T06:00:32.492Z,10.10
2023-01-15T06:05:34.249Z,10.50
2023-01-15T06:10:36.030Z,9.70
2023-01-15T06:15:37.998Z,10.00
2023-01-15T06:20:41.077Z,9.80
2023-01-15T06:25:42.833Z,9.60
2023-01-15T06:46:09.877Z,9.50
2023-01-15T06:51:15.556Z,9.40
2023-01-15T06:56:17.305Z,9.40
2023-01-15T07:01:20.239Z,9.30
2023-01-15T07:06:22.043Z,9.90
2023-01-15T07:31:35.846Z,8.60
2023-01-15T07:36:38.071Z,8.50
2023-01-15T07:41:58.340Z,9.00
2023-01-15T07:47:19.111Z,10.70
2023-01-15T07:52:22.717Z,8.60
2023-01-15T08:02:27.425Z,7.80
2023-01-15T08:07:29.190Z,8.80
2023-01-15T08:17:52.591Z,7.80
2023-01-15T08:22:54.459Z,7.70
2023-01-15T08:27:56.569Z,5.70
2023-01-15T08:33:03.236Z,7.80
2023-01-15T08:38:06.918Z,7.80
2023-01-15T08:43:09.449Z,7.80
2023-01-15T08:53:13.435Z,7.40
2023-01-15T09:08:20.434Z,7.10
2023-01-15T09:13:22.288Z,7.10
2023-01-15T09:23:26.177Z,7.50
2023-01-15T09:28:29.300Z,7.30
2023-01-15T09:38:35.121Z,7.30
2023-01-15T09:48:52.124Z,6.80
2023-01-15T09:54:20.678Z,7.10
2023-01-15T09:59:42.116Z,7.10
2023-01-15T10:04:49.964Z,7.10
2023-01-15T10:10:01.115Z,6.90
2023-01-15T10:15:25.175Z,6.50
2023-01-15T10:20:50.286Z,6.60
2023-01-15T10:25:59.866Z,6.90
2023-01-15T10:31:22.427Z,6.80
2023-01-15T10:36:44.469Z,6.60
2023-01-15T10:42:08.872Z,7.50
2023-01-15T10:47:19.000Z,6.80
2023-01-15T10:52:43.055Z,6.80
2023-01-15T10:58:09.891Z,6.40
2023-01-15T11:03:27.084Z,6.30
2023-01-15T11:14:13.552Z,6.40
2023-01-15T11:19:38.008Z,6.30
2023-01-15T11:24:49.618Z,6.50
2023-01-15T11:29:54.935Z,6.60
2023-01-15T11:34:59.255Z,6.00
2023-01-15T11:40:10.035Z,7.10
2023-01-15T11:45:34.073Z,6.10
2023-01-15T11:50:45.384Z,6.10
2023-01-15T11:56:06.750Z,6.10
2023-01-15T12:06:13.972Z,6.20
2023-01-15T12:11:50.008Z,6.20
2023-01-15T12:17:25.119Z,6.00
2023-01-15T12:27:52.521Z,5.80
2023-01-15T12:33:16.483Z,5.60
2023-01-15T12:38:41.950Z,5.50
2023-01-15T12:44:08.098Z,5.80
2023-01-15T12:49:25.120Z,5.10
2023-01-15T12:54:38.269Z,5.50
2023-01-15T12:59:57.878Z,5.60
2023-01-15T13:05:19.115Z,5.70
2023-01-15T13:10:25.055Z,5.60
2023-01-15T13:15:33.291Z,5.80
2023-01-15T13:26:08.483Z,5.70
2023-01-15T13:31:10.549Z,5.70
2023-01-15T13:36:25.094Z,5.70
2023-01-15T13:41:48.347Z,5.80
2023-01-15T13:47:03.163Z,6.00
2023-01-15T13:52:07.278Z,5.80
2023-01-15T13:57:41.275Z,6.10
2023-01-15T14:02:55.438Z,6.00
2023-01-15T14:07:58.021Z,6.10
2023-01-15T14:13:29.616Z,6.20
2023-01-15T14:18:50.737Z,6.10
2023-01-15T14:24:11.920Z,6.30
2023-01-15T14:29:45.634Z,6.80
2023-01-15T14:34:59.380Z,8.20
2023-01-15T14:40:03.842Z,6.80
2023-01-15T14:45:11.705Z,6.60
2023-01-15T14:50:38.254Z,6.80
2023-01-15T14:56:03.372Z,6.90
2023-01-15T15:01:15.591Z,7.00
2023-01-15T15:11:47.821Z,7.10
2023-01-15T15:16:53.966Z,7.70
2023-01-15T15:22:00.463Z,7.70
2023-01-15T15:27:19.683Z,8.30
2023-01-15T15:32:25.003Z,7.10
2023-01-15T15:37:29.917Z,7.20
2023-01-15T15:42:58.352Z,7.00
2023-01-15T15:48:27.933Z,7.10
2023-01-15T15:53:29.814Z,8.40
2023-01-15T15:58:36.385Z,7.00
2023-01-15T16:03:47.928Z,7.00
2023-01-15T16:09:01.479Z,6.20
2023-01-15T16:14:08.234Z,6.30
2023-01-15T16:19:17.912Z,6.60
2023-01-15T16:24:25.737Z,6.40
2023-01-15T16:29:33.404Z,6.30
2023-01-15T16:39:43.960Z,6.20
2023-01-15T16:44:52.470Z,6.30
2023-01-15T16:50:14.428Z,6.30
2023-01-15T16:55:35.774Z,6.10
2023-01-15T17:00:38.075Z,6.10
2023-01-15T17:10:59.336Z,5.60
2023-01-15T17:16:05.469Z,5.90
2023-01-15T17:21:29.328Z,5.70
2023-01-15T17:26:31.167Z,5.90
2023-01-15T17:31:34.363Z,5.70
2023-01-15T17:36:39.286Z,5.80
2023-01-15T17:51:45.556Z,5.80
2023-01-15T18:02:33.766Z,5.70
2023-01-15T18:07:40.839Z,5.70
2023-01-15T18:12:42.670Z,5.90
2023-01-15T18:17:45.140Z,5.80
2023-01-15T18:22:46.945Z,8.30
2023-01-15T18:43:15.913Z,5.80
2023-01-15T18:48:17.824Z,7.00
2023-01-15T18:53:19.702Z,5.90
2023-01-15T18:58:21.420Z,5.70
2023-01-15T19:08:25.402Z,5.60
2023-01-15T19:23:43.675Z,5.70
2023-01-15T19:28:45.440Z,5.60
2023-01-15T19:44:12.710Z,5.40
2023-01-15T19:49:41.612Z,5.30
2023-01-15T20:05:06.807Z,5.50
2023-01-15T20:10:14.043Z,5.40
2023-01-15T20:15:15.918Z,5.20
2023-01-15T20:20:17.772Z,5.50
2023-01-15T20:25:19.505Z,5.40
2023-01-15T20:30:25.569Z,5.60
2023-01-15T20:35:33.526Z,5.60
2023-01-15T20:50:43.837Z,8.00
2023-01-15T21:01:06.372Z,5.30
2023-01-15T21:06:09.321Z,5.00
2023-01-15T21:11:11.028Z,5.20
2023-01-15T21:16:14.538Z,5.20
2023-01-15T21:21:18.384Z,5.20
2023-01-15T21:26:20.150Z,5.30
2023-01-15T21:31:22.310Z,5.30
2023-01-15T21:46:47.378Z,5.40
2023-01-15T21:51:49.115Z,5.40
2023-01-15T21:56:50.897Z,5.50
2023-01-15T22:01:57.168Z,5.30
2023-01-15T22:06:59.081Z,5.50
2023-01-15T22:17:04.666Z,5.50
2023-01-15T22:22:10.145Z,5.50
2023-01-15T22:27:15.782Z,5.40
2023-01-15T22:32:17.524Z,5.40
2023-01-15T22:37:19.294Z,5.60
2023-01-15T22:42:31.313Z,5.90
2023-01-15T22:52:35.517Z,6.10
2023-01-15T23:02:54.751Z,6.10
2023-01-15T23:12:58.932Z,6.00
2023-01-15T23:18:00.793Z,6.00
2023-01-15T23:28:04.862Z,5.70
2023-01-15T23:33:06.587Z,6.00
2023-01-15T23:38:08.339Z,5.80
2023-01-15T23:43:33.869Z,5.90
2023-01-15T23:48:35.754Z,5.80
2023-01-15T23:53:37.550Z,5.80
2023-01-15T23:58:39.339Z,7.90
